Terminal Aerodrome Forecast
Issued by NWS Tulsa, OK

Home | Current Version | Previous Version | Text Only | Print | Product List | Glossary On
Versions: 1 2 3 4 5 6 7 8 9 10 11 12 13 14 15 16 17 18 19 20 21 22 23 24 25 26 27 28 29 30
000
FTUS44 KTSA 241900 AAA
TAFTUL
TAF AMD
KTUL 241905Z 2419/2518 18010KT P6SM -RA SCT020 OVC050
      TEMPO 2419/2421 5SM -RA OVC030
     FM242100 18010KT P6SM -RA SCT020 OVC050
      TEMPO 2421/2424 4SM -TSRA BKN015CB OVC040
     FM250000 15006KT P6SM VCSH BKN025 OVC040=

USA.gov is the U.S. government's official web portal to all federal, state and local government web resources and services.